sensor_id;sensor_type;location;lat;lon;timestamp;P1;durP1;ratioP1;P2;durP2;ratioP2
7573;SDS011;3828;48.922;9.116;2024-03-02T00:00:58;1.60;;;1.60;;
7573;SDS011;3828;48.922;9.116;2024-03-02T00:03:26;1.30;;;1.30;;
7573;SDS011;3828;48.922;9.116;2024-03-02T00:05:52;1.20;;;1.20;;
7573;SDS011;3828;48.922;9.116;2024-03-02T00:08:22;1.40;;;1.40;;
7573;SDS011;3828;48.922;9.116;2024-03-02T00:10:51;1.37;;;1.37;;
7573;SDS011;3828;48.922;9.116;2024-03-02T00:13:21;1.40;;;1.40;;
7573;SDS011;3828;48.922;9.116;2024-03-02T00:15:52;1.60;;;1.60;;
7573;SDS011;3828;48.922;9.116;2024-03-02T00:18:23;1.60;;;1.60;;
7573;SDS011;3828;48.922;9.116;2024-03-02T00:20:52;1.57;;;1.57;;
7573;SDS011;3828;48.922;9.116;2024-03-02T00:23:21;1.57;;;1.57;;
7573;SDS011;3828;48.922;9.116;2024-03-02T00:25:48;1.43;;;1.43;;
7573;SDS011;3828;48.922;9.116;2024-03-02T00:28:19;1.83;;;1.83;;
7573;SDS011;3828;48.922;9.116;2024-03-02T00:30:55;1.80;;;1.80;;
7573;SDS011;3828;48.922;9.116;2024-03-02T00:33:23;1.50;;;1.50;;
7573;SDS011;3828;48.922;9.116;2024-03-02T00:35:56;1.57;;;1.57;;
7573;SDS011;3828;48.922;9.116;2024-03-02T00:38:24;1.40;;;1.40;;
7573;SDS011;3828;48.922;9.116;2024-03-02T00:40:52;1.67;;;1.67;;
7573;SDS011;3828;48.922;9.116;2024-03-02T00:46:15;1.40;;;1.40;;
7573;SDS011;3828;48.922;9.116;2024-03-02T00:48:53;1.47;;;1.47;;
7573;SDS011;3828;48.922;9.116;2024-03-02T00:51:24;1.50;;;1.50;;
7573;SDS011;3828;48.922;9.116;2024-03-02T00:53:54;1.50;;;1.50;;
7573;SDS011;3828;48.922;9.116;2024-03-02T00:56:26;1.90;;;1.90;;
7573;SDS011;3828;48.922;9.116;2024-03-02T00:58:53;1.50;;;1.50;;
7573;SDS011;3828;48.922;9.116;2024-03-02T01:01:22;1.40;;;1.40;;
7573;SDS011;3828;48.922;9.116;2024-03-02T01:03:49;1.40;;;1.40;;
7573;SDS011;3828;48.922;9.116;2024-03-02T01:06:16;1.40;;;1.40;;
7573;SDS011;3828;48.922;9.116;2024-03-02T01:08:44;1.50;;;1.50;;
7573;SDS011;3828;48.922;9.116;2024-03-02T01:11:11;1.50;;;1.50;;
7573;SDS011;3828;48.922;9.116;2024-03-02T01:13:38;1.50;;;1.50;;
7573;SDS011;3828;48.922;9.116;2024-03-02T01:16:05;1.30;;;1.30;;
7573;SDS011;3828;48.922;9.116;2024-03-02T01:18:34;1.33;;;1.33;;
7573;SDS011;3828;48.922;9.116;2024-03-02T01:21:01;1.50;;;1.50;;
7573;SDS011;3828;48.922;9.116;2024-03-02T01:23:28;1.40;;;1.40;;
7573;SDS011;3828;48.922;9.116;2024-03-02T01:25:55;1.50;;;1.50;;
7573;SDS011;3828;48.922;9.116;2024-03-02T01:28:22;1.50;;;1.50;;
7573;SDS011;3828;48.922;9.116;2024-03-02T01:30:49;1.40;;;1.40;;
7573;SDS011;3828;48.922;9.116;2024-03-02T01:33:17;1.50;;;1.50;;
7573;SDS011;3828;48.922;9.116;2024-03-02T01:35:46;1.50;;;1.50;;
7573;SDS011;3828;48.922;9.116;2024-03-02T01:38:13;1.30;;;1.30;;
7573;SDS011;3828;48.922;9.116;2024-03-02T01:40:40;1.60;;;1.60;;
7573;SDS011;3828;48.922;9.116;2024-03-02T01:43:09;1.30;;;1.30;;
7573;SDS011;3828;48.922;9.116;2024-03-02T01:45:36;1.60;;;1.60;;
7573;SDS011;3828;48.922;9.116;2024-03-02T01:48:07;1.60;;;1.60;;
7573;SDS011;3828;48.922;9.116;2024-03-02T01:50:34;1.40;;;1.40;;
7573;SDS011;3828;48.922;9.116;2024-03-02T01:53:03;1.40;;;1.40;;
7573;SDS011;3828;48.922;9.116;2024-03-02T01:55:30;1.50;;;1.50;;
7573;SDS011;3828;48.922;9.116;2024-03-02T01:57:58;1.60;;;1.60;;
7573;SDS011;3828;48.922;9.116;2024-03-02T02:00:27;1.27;;;1.27;;
7573;SDS011;3828;48.922;9.116;2024-03-02T02:02:55;1.40;;;1.40;;
7573;SDS011;3828;48.922;9.116;2024-03-02T02:05:22;1.50;;;1.50;;
7573;SDS011;3828;48.922;9.116;2024-03-02T02:07:49;1.57;;;1.57;;
7573;SDS011;3828;48.922;9.116;2024-03-02T02:10:18;1.50;;;1.50;;
7573;SDS011;3828;48.922;9.116;2024-03-02T02:12:45;1.50;;;1.50;;
7573;SDS011;3828;48.922;9.116;2024-03-02T02:15:22;1.77;;;1.77;;
7573;SDS011;3828;48.922;9.116;2024-03-02T02:17:49;1.63;;;1.63;;
7573;SDS011;3828;48.922;9.116;2024-03-02T02:20:17;1.47;;;1.47;;
7573;SDS011;3828;48.922;9.116;2024-03-02T02:22:58;1.80;;;1.80;;
7573;SDS011;3828;48.922;9.116;2024-03-02T02:25:26;1.50;;;1.50;;
7573;SDS011;3828;48.922;9.116;2024-03-02T02:27:54;1.40;;;1.40;;
7573;SDS011;3828;48.922;9.116;2024-03-02T02:30:22;1.90;;;1.90;;
7573;SDS011;3828;48.922;9.116;2024-03-02T02:32:51;1.60;;;1.60;;
7573;SDS011;3828;48.922;9.116;2024-03-02T02:35:18;1.80;;;1.80;;
7573;SDS011;3828;48.922;9.116;2024-03-02T02:37:46;1.50;;;1.50;;
7573;SDS011;3828;48.922;9.116;2024-03-02T02:40:16;1.40;;;1.40;;
7573;SDS011;3828;48.922;9.116;2024-03-02T02:42:43;1.93;;;1.93;;
7573;SDS011;3828;48.922;9.116;2024-03-02T02:45:11;1.87;;;1.87;;
7573;SDS011;3828;48.922;9.116;2024-03-02T02:47:38;1.70;;;1.70;;
7573;SDS011;3828;48.922;9.116;2024-03-02T02:50:07;1.60;;;1.60;;
7573;SDS011;3828;48.922;9.116;2024-03-02T02:52:34;1.33;;;1.33;;
7573;SDS011;3828;48.922;9.116;2024-03-02T02:55:08;1.83;;;1.83;;
7573;SDS011;3828;48.922;9.116;2024-03-02T02:57:38;1.73;;;1.73;;
7573;SDS011;3828;48.922;9.116;2024-03-02T03:00:07;1.63;;;1.63;;
7573;SDS011;3828;48.922;9.116;2024-03-02T03:02:39;2.10;;;2.10;;
7573;SDS011;3828;48.922;9.116;2024-03-02T03:05:07;1.60;;;1.60;;
7573;SDS011;3828;48.922;9.116;2024-03-02T03:07:34;2.07;;;2.07;;
7573;SDS011;3828;48.922;9.116;2024-03-02T03:10:01;1.40;;;1.40;;
7573;SDS011;3828;48.922;9.116;2024-03-02T03:12:29;1.90;;;1.90;;
7573;SDS011;3828;48.922;9.116;2024-03-02T03:14:57;1.60;;;1.60;;
7573;SDS011;3828;48.922;9.116;2024-03-02T03:17:25;1.70;;;1.70;;
7573;SDS011;3828;48.922;9.116;2024-03-02T03:19:52;1.50;;;1.50;;
7573;SDS011;3828;48.922;9.116;2024-03-02T03:22:19;3.50;;;3.40;;
7573;SDS011;3828;48.922;9.116;2024-03-02T03:24:46;1.70;;;1.70;;
7573;SDS011;3828;48.922;9.116;2024-03-02T03:27:13;1.60;;;1.60;;
7573;SDS011;3828;48.922;9.116;2024-03-02T03:29:40;1.80;;;1.80;;
7573;SDS011;3828;48.922;9.116;2024-03-02T03:32:08;1.60;;;1.60;;
7573;SDS011;3828;48.922;9.116;2024-03-02T03:34:35;1.43;;;1.43;;
7573;SDS011;3828;48.922;9.116;2024-03-02T03:37:02;1.30;;;1.30;;
7573;SDS011;3828;48.922;9.116;2024-03-02T03:39:29;2.00;;;2.00;;
7573;SDS011;3828;48.922;9.116;2024-03-02T03:41:56;1.70;;;1.70;;
7573;SDS011;3828;48.922;9.116;2024-03-02T03:44:23;2.07;;;2.07;;
7573;SDS011;3828;48.922;9.116;2024-03-02T03:46:50;1.30;;;1.30;;
7573;SDS011;3828;48.922;9.116;2024-03-02T03:49:19;1.60;;;1.60;;
7573;SDS011;3828;48.922;9.116;2024-03-02T03:51:45;1.50;;;1.50;;
7573;SDS011;3828;48.922;9.116;2024-03-02T03:54:13;1.67;;;1.67;;
7573;SDS011;3828;48.922;9.116;2024-03-02T03:56:40;1.80;;;1.80;;
7573;SDS011;3828;48.922;9.116;2024-03-02T03:59:07;1.60;;;1.60;;
7573;SDS011;3828;48.922;9.116;2024-03-02T04:01:34;1.50;;;1.50;;
7573;SDS011;3828;48.922;9.116;2024-03-02T04:04:01;1.60;;;1.60;;
7573;SDS011;3828;48.922;9.116;2024-03-02T04:06:30;1.40;;;1.40;;
7573;SDS011;3828;48.922;9.116;2024-03-02T04:08:57;1.80;;;1.80;;
7573;SDS011;3828;48.922;9.116;2024-03-02T04:11:23;1.63;;;1.63;;
7573;SDS011;3828;48.922;9.116;2024-03-02T04:13:50;2.10;;;2.10;;
7573;SDS011;3828;48.922;9.116;2024-03-02T04:16:17;1.53;;;1.53;;
7573;SDS011;3828;48.922;9.116;2024-03-02T04:18:44;1.70;;;1.70;;
7573;SDS011;3828;48.922;9.116;2024-03-02T04:21:11;1.70;;;1.70;;
7573;SDS011;3828;48.922;9.116;2024-03-02T04:23:39;1.57;;;1.57;;
7573;SDS011;3828;48.922;9.116;2024-03-02T04:26:07;1.70;;;1.70;;
7573;SDS011;3828;48.922;9.116;2024-03-02T04:28:34;1.63;;;1.63;;
7573;SDS011;3828;48.922;9.116;2024-03-02T04:31:01;1.50;;;1.50;;
7573;SDS011;3828;48.922;9.116;2024-03-02T04:33:28;1.50;;;1.50;;
7573;SDS011;3828;48.922;9.116;2024-03-02T04:35:54;1.50;;;1.50;;
7573;SDS011;3828;48.922;9.116;2024-03-02T04:38:23;1.70;;;1.70;;
7573;SDS011;3828;48.922;9.116;2024-03-02T04:40:51;1.50;;;1.50;;
7573;SDS011;3828;48.922;9.116;2024-03-02T04:43:18;1.87;;;1.87;;
7573;SDS011;3828;48.922;9.116;2024-03-02T04:45:45;1.70;;;1.70;;
7573;SDS011;3828;48.922;9.116;2024-03-02T04:48:12;1.80;;;1.80;;
7573;SDS011;3828;48.922;9.116;2024-03-02T04:50:39;1.80;;;1.80;;
7573;SDS011;3828;48.922;9.116;2024-03-02T04:53:06;1.87;;;1.87;;
7573;SDS011;3828;48.922;9.116;2024-03-02T04:55:33;1.90;;;1.90;;
7573;SDS011;3828;48.922;9.116;2024-03-02T04:58:36;1.30;;;1.30;;
7573;SDS011;3828;48.922;9.116;2024-03-02T05:01:03;1.73;;;1.73;;
7573;SDS011;3828;48.922;9.116;2024-03-02T05:03:30;1.90;;;1.90;;
7573;SDS011;3828;48.922;9.116;2024-03-02T05:05:59;2.17;;;2.17;;
7573;SDS011;3828;48.922;9.116;2024-03-02T05:08:29;1.57;;;1.57;;
7573;SDS011;3828;48.922;9.116;2024-03-02T05:10:55;1.50;;;1.50;;
7573;SDS011;3828;48.922;9.116;2024-03-02T05:13:44;1.60;;;1.60;;
7573;SDS011;3828;48.922;9.116;2024-03-02T05:16:10;1.60;;;1.60;;
7573;SDS011;3828;48.922;9.116;2024-03-02T05:18:37;1.60;;;1.60;;
7573;SDS011;3828;48.922;9.116;2024-03-02T05:21:04;1.33;;;1.33;;
7573;SDS011;3828;48.922;9.116;2024-03-02T05:23:31;1.67;;;1.67;;
7573;SDS011;3828;48.922;9.116;2024-03-02T05:25:58;1.70;;;1.70;;
7573;SDS011;3828;48.922;9.116;2024-03-02T05:28:25;1.60;;;1.60;;
7573;SDS011;3828;48.922;9.116;2024-03-02T05:30:53;1.80;;;1.80;;
7573;SDS011;3828;48.922;9.116;2024-03-02T05:33:21;1.60;;;1.60;;
7573;SDS011;3828;48.922;9.116;2024-03-02T05:35:48;1.60;;;1.60;;
7573;SDS011;3828;48.922;9.116;2024-03-02T05:38:16;1.80;;;1.80;;
7573;SDS011;3828;48.922;9.116;2024-03-02T05:40:43;1.80;;;1.80;;
7573;SDS011;3828;48.922;9.116;2024-03-02T05:43:10;1.70;;;1.70;;
7573;SDS011;3828;48.922;9.116;2024-03-02T05:45:37;1.73;;;1.73;;
7573;SDS011;3828;48.922;9.116;2024-03-02T05:48:06;2.23;;;2.23;;
7573;SDS011;3828;48.922;9.116;2024-03-02T05:50:34;1.83;;;1.83;;
7573;SDS011;3828;48.922;9.116;2024-03-02T05:53:02;2.13;;;2.13;;
7573;SDS011;3828;48.922;9.116;2024-03-02T05:55:29;1.63;;;1.63;;
7573;SDS011;3828;48.922;9.116;2024-03-02T05:58:04;1.90;;;1.90;;
7573;SDS011;3828;48.922;9.116;2024-03-02T06:00:47;1.60;;;1.60;;
7573;SDS011;3828;48.922;9.116;2024-03-02T06:03:15;1.40;;;1.40;;
7573;SDS011;3828;48.922;9.116;2024-03-02T06:05:42;1.53;;;1.53;;
7573;SDS011;3828;48.922;9.116;2024-03-02T06:11:32;1.70;;;1.70;;
7573;SDS011;3828;48.922;9.116;2024-03-02T06:20:03;1.80;;;1.80;;
7573;SDS011;3828;48.922;9.116;2024-03-02T06:22:33;1.40;;;1.40;;
7573;SDS011;3828;48.922;9.116;2024-03-02T06:24:59;1.50;;;1.50;;
7573;SDS011;3828;48.922;9.116;2024-03-02T06:27:26;1.40;;;1.40;;
7573;SDS011;3828;48.922;9.116;2024-03-02T06:29:53;1.77;;;1.77;;
7573;SDS011;3828;48.922;9.116;2024-03-02T06:32:20;1.67;;;1.67;;
7573;SDS011;3828;48.922;9.116;2024-03-02T06:34:48;1.60;;;1.60;;
7573;SDS011;3828;48.922;9.116;2024-03-02T06:37:16;1.67;;;1.67;;
7573;SDS011;3828;48.922;9.116;2024-03-02T06:39:43;1.63;;;1.63;;
7573;SDS011;3828;48.922;9.116;2024-03-02T06:42:10;1.60;;;1.60;;
7573;SDS011;3828;48.922;9.116;2024-03-02T06:44:37;1.80;;;1.80;;
7573;SDS011;3828;48.922;9.116;2024-03-02T06:47:04;1.90;;;1.90;;
7573;SDS011;3828;48.922;9.116;2024-03-02T06:49:31;1.80;;;1.80;;
7573;SDS011;3828;48.922;9.116;2024-03-02T06:51:59;1.60;;;1.60;;
7573;SDS011;3828;48.922;9.116;2024-03-02T06:54:28;1.53;;;1.53;;
7573;SDS011;3828;48.922;9.116;2024-03-02T06:56:54;1.80;;;1.80;;
7573;SDS011;3828;48.922;9.116;2024-03-02T06:59:21;1.70;;;1.70;;
7573;SDS011;3828;48.922;9.116;2024-03-02T07:01:49;1.70;;;1.70;;
7573;SDS011;3828;48.922;9.116;2024-03-02T07:04:16;2.30;;;2.27;;
7573;SDS011;3828;48.922;9.116;2024-03-02T07:06:43;1.60;;;1.60;;
7573;SDS011;3828;48.922;9.116;2024-03-02T07:09:10;2.07;;;2.07;;
7573;SDS011;3828;48.922;9.116;2024-03-02T07:11:38;1.53;;;1.53;;
7573;SDS011;3828;48.922;9.116;2024-03-02T07:14:05;1.90;;;1.90;;
7573;SDS011;3828;48.922;9.116;2024-03-02T07:16:32;1.43;;;1.43;;
7573;SDS011;3828;48.922;9.116;2024-03-02T07:18:59;2.00;;;2.00;;
7573;SDS011;3828;48.922;9.116;2024-03-02T07:21:27;1.47;;;1.47;;
7573;SDS011;3828;48.922;9.116;2024-03-02T07:23:54;1.90;;;1.90;;
7573;SDS011;3828;48.922;9.116;2024-03-02T07:26:21;1.57;;;1.57;;
7573;SDS011;3828;48.922;9.116;2024-03-02T07:28:49;2.17;;;2.17;;
7573;SDS011;3828;48.922;9.116;2024-03-02T07:31:17;1.50;;;1.50;;
7573;SDS011;3828;48.922;9.116;2024-03-02T07:33:44;1.83;;;1.83;;
7573;SDS011;3828;48.922;9.116;2024-03-02T07:36:12;1.40;;;1.40;;
7573;SDS011;3828;48.922;9.116;2024-03-02T07:38:39;1.57;;;1.57;;
7573;SDS011;3828;48.922;9.116;2024-03-02T07:41:06;1.80;;;1.80;;
7573;SDS011;3828;48.922;9.116;2024-03-02T07:43:34;1.60;;;1.60;;
7573;SDS011;3828;48.922;9.116;2024-03-02T07:46:03;1.50;;;1.50;;
7573;SDS011;3828;48.922;9.116;2024-03-02T07:48:31;1.43;;;1.43;;
7573;SDS011;3828;48.922;9.116;2024-03-02T07:50:57;1.40;;;1.40;;
7573;SDS011;3828;48.922;9.116;2024-03-02T07:53:25;1.30;;;1.30;;
7573;SDS011;3828;48.922;9.116;2024-03-02T07:55:52;1.40;;;1.40;;
7573;SDS011;3828;48.922;9.116;2024-03-02T07:58:19;1.40;;;1.40;;
7573;SDS011;3828;48.922;9.116;2024-03-02T08:00:46;1.57;;;1.57;;
7573;SDS011;3828;48.922;9.116;2024-03-02T08:03:14;1.50;;;1.50;;
7573;SDS011;3828;48.922;9.116;2024-03-02T08:05:41;1.40;;;1.40;;
7573;SDS011;3828;48.922;9.116;2024-03-02T08:08:08;1.47;;;1.47;;
7573;SDS011;3828;48.922;9.116;2024-03-02T08:10:36;1.40;;;1.40;;
7573;SDS011;3828;48.922;9.116;2024-03-02T08:13:03;1.50;;;1.50;;
7573;SDS011;3828;48.922;9.116;2024-03-02T08:15:31;1.60;;;1.60;;
7573;SDS011;3828;48.922;9.116;2024-03-02T08:17:58;1.40;;;1.40;;
7573;SDS011;3828;48.922;9.116;2024-03-02T08:20:26;1.57;;;1.57;;
7573;SDS011;3828;48.922;9.116;2024-03-02T08:22:53;1.53;;;1.53;;
7573;SDS011;3828;48.922;9.116;2024-03-02T08:25:21;1.60;;;1.60;;
7573;SDS011;3828;48.922;9.116;2024-03-02T08:27:48;1.53;;;1.53;;
7573;SDS011;3828;48.922;9.116;2024-03-02T08:30:15;1.50;;;1.50;;
7573;SDS011;3828;48.922;9.116;2024-03-02T08:32:43;1.30;;;1.30;;
7573;SDS011;3828;48.922;9.116;2024-03-02T08:35:12;1.50;;;1.50;;
7573;SDS011;3828;48.922;9.116;2024-03-02T08:37:40;1.20;;;1.20;;
7573;SDS011;3828;48.922;9.116;2024-03-02T08:40:09;1.20;;;1.20;;
7573;SDS011;3828;48.922;9.116;2024-03-02T08:42:36;1.23;;;1.23;;
7573;SDS011;3828;48.922;9.116;2024-03-02T08:45:03;1.30;;;1.30;;
7573;SDS011;3828;48.922;9.116;2024-03-02T08:47:31;1.23;;;1.23;;
7573;SDS011;3828;48.922;9.116;2024-03-02T08:49:58;0.90;;;0.90;;
7573;SDS011;3828;48.922;9.116;2024-03-02T08:52:25;0.83;;;0.83;;
7573;SDS011;3828;48.922;9.116;2024-03-02T08:54:53;0.90;;;0.90;;
7573;SDS011;3828;48.922;9.116;2024-03-02T08:57:20;0.90;;;0.90;;
7573;SDS011;3828;48.922;9.116;2024-03-02T08:59:47;0.80;;;0.80;;
7573;SDS011;3828;48.922;9.116;2024-03-02T09:02:14;0.80;;;0.80;;
7573;SDS011;3828;48.922;9.116;2024-03-02T09:04:41;0.90;;;0.90;;
7573;SDS011;3828;48.922;9.116;2024-03-02T09:07:09;0.90;;;0.90;;
7573;SDS011;3828;48.922;9.116;2024-03-02T09:09:35;0.70;;;0.70;;
7573;SDS011;3828;48.922;9.116;2024-03-02T09:12:05;0.70;;;0.70;;
7573;SDS011;3828;48.922;9.116;2024-03-02T09:14:32;0.80;;;0.80;;
7573;SDS011;3828;48.922;9.116;2024-03-02T09:16:59;0.80;;;0.80;;
7573;SDS011;3828;48.922;9.116;2024-03-02T09:19:26;0.90;;;0.90;;
7573;SDS011;3828;48.922;9.116;2024-03-02T09:21:53;0.90;;;0.90;;
7573;SDS011;3828;48.922;9.116;2024-03-02T09:24:21;0.80;;;0.80;;
7573;SDS011;3828;48.922;9.116;2024-03-02T09:26:48;0.90;;;0.90;;
7573;SDS011;3828;48.922;9.116;2024-03-02T09:29:16;0.80;;;0.80;;
7573;SDS011;3828;48.922;9.116;2024-03-02T09:31:45;1.00;;;1.00;;
7573;SDS011;3828;48.922;9.116;2024-03-02T09:34:12;1.00;;;1.00;;
7573;SDS011;3828;48.922;9.116;2024-03-02T09:36:40;0.80;;;0.80;;
7573;SDS011;3828;48.922;9.116;2024-03-02T09:39:08;1.00;;;1.00;;
7573;SDS011;3828;48.922;9.116;2024-03-02T09:41:36;1.00;;;1.00;;
7573;SDS011;3828;48.922;9.116;2024-03-02T09:44:03;0.90;;;0.90;;
7573;SDS011;3828;48.922;9.116;2024-03-02T09:46:32;1.57;;;1.57;;
7573;SDS011;3828;48.922;9.116;2024-03-02T09:49:00;0.83;;;0.83;;
7573;SDS011;3828;48.922;9.116;2024-03-02T09:51:27;1.30;;;1.30;;
7573;SDS011;3828;48.922;9.116;2024-03-02T09:53:54;0.70;;;0.70;;
7573;SDS011;3828;48.922;9.116;2024-03-02T09:56:26;0.80;;;0.80;;
7573;SDS011;3828;48.922;9.116;2024-03-02T09:58:54;0.67;;;0.67;;
7573;SDS011;3828;48.922;9.116;2024-03-02T10:01:21;0.77;;;0.77;;
7573;SDS011;3828;48.922;9.116;2024-03-02T10:03:49;0.93;;;0.93;;
7573;SDS011;3828;48.922;9.116;2024-03-02T10:06:20;0.80;;;0.80;;
7573;SDS011;3828;48.922;9.116;2024-03-02T10:08:48;0.60;;;0.60;;
7573;SDS011;3828;48.922;9.116;2024-03-02T10:11:28;0.70;;;0.70;;
7573;SDS011;3828;48.922;9.116;2024-03-02T10:14:05;0.83;;;0.83;;
7573;SDS011;3828;48.922;9.116;2024-03-02T10:16:36;0.83;;;0.83;;
7573;SDS011;3828;48.922;9.116;2024-03-02T10:19:16;0.67;;;0.67;;
7573;SDS011;3828;48.922;9.116;2024-03-02T10:21:44;0.63;;;0.63;;
7573;SDS011;3828;48.922;9.116;2024-03-02T10:24:11;1.07;;;1.07;;
7573;SDS011;3828;48.922;9.116;2024-03-02T10:26:38;0.50;;;0.50;;
7573;SDS011;3828;48.922;9.116;2024-03-02T10:29:07;0.97;;;0.97;;
7573;SDS011;3828;48.922;9.116;2024-03-02T10:31:38;0.50;;;0.50;;
7573;SDS011;3828;48.922;9.116;2024-03-02T10:34:05;0.57;;;0.57;;
7573;SDS011;3828;48.922;9.116;2024-03-02T10:36:34;0.60;;;0.60;;
7573;SDS011;3828;48.922;9.116;2024-03-02T10:41:47;0.37;;;0.37;;
7573;SDS011;3828;48.922;9.116;2024-03-02T10:44:15;1.13;;;1.00;;
7573;SDS011;3828;48.922;9.116;2024-03-02T10:46:43;0.70;;;0.70;;
7573;SDS011;3828;48.922;9.116;2024-03-02T10:49:13;0.73;;;0.73;;
7573;SDS011;3828;48.922;9.116;2024-03-02T10:51:42;0.40;;;0.40;;
7573;SDS011;3828;48.922;9.116;2024-03-02T10:54:09;0.83;;;0.83;;
7573;SDS011;3828;48.922;9.116;2024-03-02T10:56:40;0.63;;;0.63;;
7573;SDS011;3828;48.922;9.116;2024-03-02T10:59:17;0.40;;;0.40;;
7573;SDS011;3828;48.922;9.116;2024-03-02T11:01:50;0.50;;;0.50;;
7573;SDS011;3828;48.922;9.116;2024-03-02T11:04:18;0.87;;;0.87;;
7573;SDS011;3828;48.922;9.116;2024-03-02T11:06:48;0.40;;;0.40;;
7573;SDS011;3828;48.922;9.116;2024-03-02T11:09:16;0.73;;;0.70;;
7573;SDS011;3828;48.922;9.116;2024-03-02T11:11:45;0.63;;;0.60;;
7573;SDS011;3828;48.922;9.116;2024-03-02T11:14:30;0.90;;;0.80;;
7573;SDS011;3828;48.922;9.116;2024-03-02T11:16:58;0.60;;;0.60;;
7573;SDS011;3828;48.922;9.116;2024-03-02T11:19:25;0.73;;;0.70;;
7573;SDS011;3828;48.922;9.116;2024-03-02T11:21:54;2.17;;;1.53;;
7573;SDS011;3828;48.922;9.116;2024-03-02T11:24:28;0.77;;;0.63;;
7573;SDS011;3828;48.922;9.116;2024-03-02T11:26:58;1.13;;;1.03;;
7573;SDS011;3828;48.922;9.116;2024-03-02T11:32:14;0.80;;;0.67;;
7573;SDS011;3828;48.922;9.116;2024-03-02T11:34:42;0.80;;;0.80;;
7573;SDS011;3828;48.922;9.116;2024-03-02T11:37:13;3.03;;;2.13;;
7573;SDS011;3828;48.922;9.116;2024-03-02T11:39:41;0.50;;;0.47;;
7573;SDS011;3828;48.922;9.116;2024-03-02T11:42:10;0.70;;;0.70;;
7573;SDS011;3828;48.922;9.116;2024-03-02T11:44:39;1.93;;;1.53;;
7573;SDS011;3828;48.922;9.116;2024-03-02T11:47:07;0.40;;;0.40;;
7573;SDS011;3828;48.922;9.116;2024-03-02T11:49:39;0.60;;;0.57;;
7573;SDS011;3828;48.922;9.116;2024-03-02T11:52:07;3.30;;;2.17;;
7573;SDS011;3828;48.922;9.116;2024-03-02T11:54:37;0.73;;;0.60;;
7573;SDS011;3828;48.922;9.116;2024-03-02T11:57:06;0.30;;;0.30;;
7573;SDS011;3828;48.922;9.116;2024-03-02T11:59:33;1.03;;;0.87;;
7573;SDS011;3828;48.922;9.116;2024-03-02T12:02:01;0.47;;;0.47;;
7573;SDS011;3828;48.922;9.116;2024-03-02T12:04:29;0.40;;;0.40;;
7573;SDS011;3828;48.922;9.116;2024-03-02T12:07:00;1.53;;;1.13;;
7573;SDS011;3828;48.922;9.116;2024-03-02T12:09:28;1.10;;;0.87;;
7573;SDS011;3828;48.922;9.116;2024-03-02T12:12:03;0.63;;;0.57;;
7573;SDS011;3828;48.922;9.116;2024-03-02T12:14:31;1.77;;;1.47;;
7573;SDS011;3828;48.922;9.116;2024-03-02T12:16:59;0.70;;;0.63;;
7573;SDS011;3828;48.922;9.116;2024-03-02T12:19:26;1.20;;;0.83;;
7573;SDS011;3828;48.922;9.116;2024-03-02T12:21:55;0.50;;;0.50;;
7573;SDS011;3828;48.922;9.116;2024-03-02T12:24:22;0.50;;;0.43;;
7573;SDS011;3828;48.922;9.116;2024-03-02T12:26:50;1.10;;;0.97;;
7573;SDS011;3828;48.922;9.116;2024-03-02T12:29:20;0.70;;;0.60;;
7573;SDS011;3828;48.922;9.116;2024-03-02T12:31:47;1.20;;;0.87;;
7573;SDS011;3828;48.922;9.116;2024-03-02T12:34:15;0.60;;;0.60;;
7573;SDS011;3828;48.922;9.116;2024-03-02T12:36:43;0.60;;;0.50;;
7573;SDS011;3828;48.922;9.116;2024-03-02T12:39:12;0.40;;;0.40;;
7573;SDS011;3828;48.922;9.116;2024-03-02T12:41:40;0.40;;;0.40;;
7573;SDS011;3828;48.922;9.116;2024-03-02T12:44:07;0.57;;;0.50;;
7573;SDS011;3828;48.922;9.116;2024-03-02T12:46:36;1.33;;;1.00;;
7573;SDS011;3828;48.922;9.116;2024-03-02T12:51:48;1.30;;;1.00;;
7573;SDS011;3828;48.922;9.116;2024-03-02T12:54:18;0.40;;;0.40;;
7573;SDS011;3828;48.922;9.116;2024-03-02T12:56:49;0.97;;;0.70;;
7573;SDS011;3828;48.922;9.116;2024-03-02T12:59:19;0.87;;;0.80;;
7573;SDS011;3828;48.922;9.116;2024-03-02T13:01:52;0.50;;;0.50;;
7573;SDS011;3828;48.922;9.116;2024-03-02T13:04:22;0.50;;;0.40;;
7573;SDS011;3828;48.922;9.116;2024-03-02T13:06:49;1.00;;;0.77;;
7573;SDS011;3828;48.922;9.116;2024-03-02T13:09:17;0.53;;;0.53;;
7573;SDS011;3828;48.922;9.116;2024-03-02T13:11:45;0.60;;;0.60;;
7573;SDS011;3828;48.922;9.116;2024-03-02T13:14:13;0.57;;;0.50;;
7573;SDS011;3828;48.922;9.116;2024-03-02T13:16:40;0.47;;;0.47;;
7573;SDS011;3828;48.922;9.116;2024-03-02T13:19:08;0.40;;;0.40;;
7573;SDS011;3828;48.922;9.116;2024-03-02T13:21:35;0.53;;;0.50;;
7573;SDS011;3828;48.922;9.116;2024-03-02T13:24:02;0.60;;;0.50;;
7573;SDS011;3828;48.922;9.116;2024-03-02T13:26:30;0.50;;;0.40;;
7573;SDS011;3828;48.922;9.116;2024-03-02T13:28:57;0.77;;;0.53;;
7573;SDS011;3828;48.922;9.116;2024-03-02T13:31:24;0.73;;;0.60;;
7573;SDS011;3828;48.922;9.116;2024-03-02T13:33:51;0.77;;;0.60;;
7573;SDS011;3828;48.922;9.116;2024-03-02T13:36:20;0.90;;;0.60;;
7573;SDS011;3828;48.922;9.116;2024-03-02T13:38:47;0.60;;;0.50;;
7573;SDS011;3828;48.922;9.116;2024-03-02T13:41:14;0.73;;;0.60;;
7573;SDS011;3828;48.922;9.116;2024-03-02T13:43:41;0.53;;;0.53;;
7573;SDS011;3828;48.922;9.116;2024-03-02T13:46:10;0.60;;;0.60;;
7573;SDS011;3828;48.922;9.116;2024-03-02T13:48:37;0.30;;;0.30;;
7573;SDS011;3828;48.922;9.116;2024-03-02T13:51:04;0.40;;;0.40;;
7573;SDS011;3828;48.922;9.116;2024-03-02T13:53:33;0.60;;;0.50;;
7573;SDS011;3828;48.922;9.116;2024-03-02T13:56:01;0.67;;;0.67;;
7573;SDS011;3828;48.922;9.116;2024-03-02T13:58:29;0.40;;;0.40;;
7573;SDS011;3828;48.922;9.116;2024-03-02T14:00:57;1.43;;;1.03;;
7573;SDS011;3828;48.922;9.116;2024-03-02T14:03:25;0.73;;;0.57;;
7573;SDS011;3828;48.922;9.116;2024-03-02T14:05:52;1.67;;;1.17;;
7573;SDS011;3828;48.922;9.116;2024-03-02T14:08:20;0.30;;;0.30;;
7573;SDS011;3828;48.922;9.116;2024-03-02T14:10:49;1.50;;;1.10;;
7573;SDS011;3828;48.922;9.116;2024-03-02T14:13:16;0.40;;;0.40;;
7573;SDS011;3828;48.922;9.116;2024-03-02T14:15:44;1.33;;;1.03;;
7573;SDS011;3828;48.922;9.116;2024-03-02T14:18:11;0.60;;;0.53;;
7573;SDS011;3828;48.922;9.116;2024-03-02T14:20:38;1.50;;;1.20;;
7573;SDS011;3828;48.922;9.116;2024-03-02T14:23:07;0.43;;;0.43;;
7573;SDS011;3828;48.922;9.116;2024-03-02T14:25:38;1.43;;;1.10;;
7573;SDS011;3828;48.922;9.116;2024-03-02T14:28:09;0.60;;;0.53;;
7573;SDS011;3828;48.922;9.116;2024-03-02T14:30:37;1.80;;;1.30;;
7573;SDS011;3828;48.922;9.116;2024-03-02T14:33:04;0.57;;;0.50;;
7573;SDS011;3828;48.922;9.116;2024-03-02T14:35:32;0.53;;;0.50;;
7573;SDS011;3828;48.922;9.116;2024-03-02T14:37:59;1.60;;;1.03;;
7573;SDS011;3828;48.922;9.116;2024-03-02T14:40:26;1.00;;;0.70;;
7573;SDS011;3828;48.922;9.116;2024-03-02T14:42:54;1.57;;;1.07;;
7573;SDS011;3828;48.922;9.116;2024-03-02T14:45:23;0.60;;;0.50;;
7573;SDS011;3828;48.922;9.116;2024-03-02T14:47:50;0.40;;;0.40;;
7573;SDS011;3828;48.922;9.116;2024-03-02T14:50:18;0.50;;;0.50;;
7573;SDS011;3828;48.922;9.116;2024-03-02T14:52:45;0.87;;;0.73;;
7573;SDS011;3828;48.922;9.116;2024-03-02T14:55:12;0.77;;;0.63;;
7573;SDS011;3828;48.922;9.116;2024-03-02T14:57:39;0.73;;;0.60;;
7573;SDS011;3828;48.922;9.116;2024-03-02T15:00:07;0.60;;;0.47;;
7573;SDS011;3828;48.922;9.116;2024-03-02T15:02:39;2.07;;;1.37;;
7573;SDS011;3828;48.922;9.116;2024-03-02T15:05:06;0.70;;;0.53;;
7573;SDS011;3828;48.922;9.116;2024-03-02T15:07:34;0.90;;;0.70;;
7573;SDS011;3828;48.922;9.116;2024-03-02T15:10:01;0.67;;;0.60;;
7573;SDS011;3828;48.922;9.116;2024-03-02T15:12:32;1.27;;;0.90;;
7573;SDS011;3828;48.922;9.116;2024-03-02T15:14:59;0.40;;;0.40;;
7573;SDS011;3828;48.922;9.116;2024-03-02T15:17:26;1.20;;;0.87;;
7573;SDS011;3828;48.922;9.116;2024-03-02T15:19:55;0.73;;;0.60;;
7573;SDS011;3828;48.922;9.116;2024-03-02T15:22:22;0.97;;;0.87;;
7573;SDS011;3828;48.922;9.116;2024-03-02T15:24:50;0.50;;;0.50;;
7573;SDS011;3828;48.922;9.116;2024-03-02T15:27:18;0.43;;;0.43;;
7573;SDS011;3828;48.922;9.116;2024-03-02T15:29:46;0.70;;;0.70;;
7573;SDS011;3828;48.922;9.116;2024-03-02T15:32:15;1.13;;;1.03;;
7573;SDS011;3828;48.922;9.116;2024-03-02T15:34:43;0.50;;;0.50;;
7573;SDS011;3828;48.922;9.116;2024-03-02T15:37:11;0.73;;;0.73;;
7573;SDS011;3828;48.922;9.116;2024-03-02T15:39:38;0.50;;;0.50;;
7573;SDS011;3828;48.922;9.116;2024-03-02T15:42:06;1.20;;;1.10;;